Time;durP1;ratioP1;P1;durP2;ratioP2;P2;SDS_P1;SDS_P2;PMS_P1;PMS_P2;Temp;Humidity;BMP_temperature;BMP_pressure;BME280_temperature;BME280_humidity;BME280_pressure;Samples;Min_cycle;Max_cycle;Signal;HPM_P1;HPM_P2
2022/06/11 00:02:02;;;;;;;2.47;1.08;;;14.10;99.90;;;;;;4909360;29;20594;-68
2022/06/11 00:04:41;;;;;;;1.90;0.98;;;14.10;99.90;;;;;;4909041;29;20960;-68
2022/06/11 00:07:14;;;;;;;2.05;0.82;;;14.10;99.90;;;;;;4909697;29;20059;-68
2022/06/11 00:09:41;;;;;;;2.20;0.82;;;14.10;99.90;;;;;;4908566;29;20064;-68
2022/06/11 00:12:08;;;;;;;1.42;0.63;;;14.10;99.90;;;;;;4906823;29;20083;-68
2022/06/11 00:14:35;;;;;;;2.50;0.60;;;14.10;99.90;;;;;;4925174;29;20292;-68
2022/06/11 00:17:05;;;;;;;1.75;0.80;;;14.00;99.90;;;;;;4925820;29;20139;-68
2022/06/11 00:19:32;;;;;;;2.28;1.00;;;14.00;99.90;;;;;;4908944;29;20071;-68
2022/06/11 00:21:59;;;;;;;1.63;0.80;;;14.00;99.90;;;;;;4908696;29;20083;-68
2022/06/11 00:24:26;;;;;;;1.08;0.63;;;13.90;99.90;;;;;;4907863;29;20135;-68
2022/06/11 00:26:54;;;;;;;2.33;0.90;;;13.90;99.90;;;;;;4904192;29;20132;-68
2022/06/11 00:29:22;;;;;;;2.42;0.98;;;13.90;99.90;;;;;;4905090;29;20056;-68
2022/06/11 00:31:48;;;;;;;1.98;0.88;;;13.90;99.90;;;;;;4889544;29;20119;-68
2022/06/11 00:34:15;;;;;;;2.63;1.08;;;13.90;99.90;;;;;;4905231;29;20404;-68
2022/06/11 00:36:43;;;;;;;2.65;1.10;;;13.80;99.90;;;;;;4906438;29;20163;-68
2022/06/11 00:39:11;;;;;;;4.32;1.00;;;13.80;99.90;;;;;;4905794;29;20104;-68
2022/06/11 00:41:39;;;;;;;2.95;1.15;;;13.80;99.90;;;;;;4903892;29;20095;-67
2022/06/11 00:44:06;;;;;;;3.45;1.08;;;13.80;99.90;;;;;;4886196;29;20787;-67
2022/06/11 00:46:42;;;;;;;2.15;1.05;;;13.80;99.90;;;;;;4905017;29;20040;-67
2022/06/11 00:49:17;;;;;;;2.17;0.93;;;13.80;99.90;;;;;;4900791;29;20131;-69
2022/06/11 00:51:44;;;;;;;3.13;0.93;;;13.70;99.90;;;;;;4912800;29;20150;-67
2022/06/11 00:54:14;;;;;;;2.35;1.13;;;13.70;99.90;;;;;;4913323;29;20086;-67
2022/06/11 00:56:46;;;;;;;1.88;0.90;;;13.70;99.90;;;;;;4916046;29;20083;-68
2022/06/11 00:59:20;;;;;;;1.35;0.60;;;13.70;99.90;;;;;;4921608;29;20065;-67
2022/06/11 01:01:47;;;;;;;1.75;0.85;;;13.70;99.90;;;;;;4909317;29;20536;-67
2022/06/11 01:04:53;;;;;;;3.63;0.93;;;13.60;99.90;;;;;;4905238;29;20264;-68
2022/06/11 01:07:43;;;;;;;2.28;0.80;;;13.60;99.90;;;;;;4884825;29;20151;-69
2022/06/11 01:10:21;;;;;;;1.73;0.70;;;13.60;99.90;;;;;;4903756;29;20562;-67
2022/06/11 01:12:57;;;;;;;1.50;0.80;;;13.60;99.90;;;;;;4903427;29;20555;-67
2022/06/11 01:15:36;;;;;;;1.90;0.88;;;13.60;99.90;;;;;;4888565;29;20055;-67
2022/06/11 01:18:42;;;;;;;3.35;1.13;;;13.50;99.90;;;;;;4889175;29;20465;-67
2022/06/11 01:21:26;;;;;;;2.60;0.82;;;13.50;99.90;;;;;;4903665;29;20090;-68
2022/06/11 01:23:56;;;;;;;1.85;0.82;;;13.50;99.90;;;;;;4888483;29;20127;-67
2022/06/11 01:26:23;;;;;;;1.25;0.68;;;13.50;99.90;;;;;;4904810;29;20552;-69
2022/06/11 01:29:10;;;;;;;1.75;0.85;;;13.50;99.90;;;;;;4923491;29;20410;-67
2022/06/11 01:31:46;;;;;;;1.85;0.80;;;13.50;99.90;;;;;;4924502;29;20126;-67
2022/06/11 01:34:28;;;;;;;1.73;0.73;;;13.50;99.90;;;;;;4893995;29;20060;-68
2022/06/11 01:36:59;;;;;;;2.88;0.95;;;13.40;99.90;;;;;;4909430;29;20079;-68
2022/06/11 01:39:36;;;;;;;2.60;0.90;;;13.40;99.90;;;;;;4909549;29;20737;-68
2022/06/11 01:42:33;;;;;;;2.35;1.00;;;13.40;99.90;;;;;;4892297;29;20328;-67
2022/06/11 01:45:06;;;;;;;2.70;0.70;;;13.40;99.90;;;;;;4904802;29;20146;-68
2022/06/11 01:47:34;;;;;;;1.98;0.65;;;13.30;99.90;;;;;;4908988;29;20048;-67
2022/06/11 01:50:01;;;;;;;2.15;0.63;;;13.30;99.90;;;;;;4893985;29;20060;-68
2022/06/11 01:52:53;;;;;;;1.42;0.70;;;13.30;99.90;;;;;;4894233;29;20114;-68
2022/06/11 01:55:39;;;;;;;2.15;0.82;;;13.30;99.90;;;;;;4911214;29;20083;-68
2022/06/11 01:58:14;;;;;;;1.38;0.70;;;13.20;99.90;;;;;;4925091;29;20091;-68
2022/06/11 02:01:11;;;;;;;1.58;0.90;;;13.20;99.90;;;;;;4926027;29;20047;-68
2022/06/11 02:04:13;;;;;;;1.15;0.60;;;13.20;99.90;;;;;;4908406;29;20072;-67
2022/06/11 02:06:58;;;;;;;1.15;0.70;;;13.20;99.90;;;;;;4894532;29;20071;-67
2022/06/11 02:09:50;;;;;;;1.15;0.60;;;13.20;99.90;;;;;;4909356;29;20086;-67
2022/06/11 02:12:23;;;;;;;1.63;0.60;;;13.10;99.90;;;;;;4894202;29;20071;-68
2022/06/11 02:15:04;;;;;;;1.50;0.70;;;13.10;99.90;;;;;;4907691;29;20488;-67
2022/06/11 02:17:34;;;;;;;1.55;0.70;;;13.10;99.90;;;;;;4910625;29;20131;-67
2022/06/11 02:20:16;;;;;;;1.67;0.90;;;13.10;99.90;;;;;;4908995;29;20087;-68
2022/06/11 02:22:45;;;;;;;1.20;0.70;;;13.00;99.90;;;;;;4892909;29;20155;-67
2022/06/11 02:25:23;;;;;;;1.88;0.68;;;13.00;99.90;;;;;;4908148;29;20176;-67
2022/06/11 02:27:52;;;;;;;1.25;0.60;;;13.00;99.90;;;;;;4877000;29;20102;-67
2022/06/11 02:30:23;;;;;;;1.30;0.65;;;13.00;99.90;;;;;;4892949;29;20147;-68
2022/06/11 02:32:50;;;;;;;2.47;0.82;;;12.90;99.90;;;;;;4892955;29;20131;-67
2022/06/11 02:35:31;;;;;;;3.58;0.80;;;12.90;99.90;;;;;;4896013;29;20548;-67
2022/06/11 02:37:58;;;;;;;2.08;0.90;;;12.90;99.90;;;;;;4897135;29;20715;-68
2022/06/11 02:40:31;;;;;;;1.17;0.57;;;12.90;99.90;;;;;;4911531;29;20048;-67
2022/06/11 02:42:58;;;;;;;2.05;0.60;;;12.80;99.90;;;;;;4895574;29;20643;-67
2022/06/11 02:45:25;;;;;;;1.25;0.68;;;12.80;99.90;;;;;;4912069;29;20558;-67
2022/06/11 02:47:52;;;;;;;1.13;0.68;;;12.80;99.90;;;;;;4912121;29;20083;-67
2022/06/11 02:50:25;;;;;;;2.80;0.90;;;12.80;99.90;;;;;;4911490;29;20079;-67
2022/06/11 02:52:52;;;;;;;;;;;12.80;99.90;;;;;;4912730;29;20087;-67
2022/06/11 02:55:19;;;;;;;1.73;0.70;;;12.80;99.90;;;;;;4928432;29;19966;-67
2022/06/11 02:57:46;;;;;;;4.28;1.67;;;12.80;99.90;;;;;;4928140;29;20091;-67
2022/06/11 03:00:19;;;;;;;1.88;0.88;;;12.70;99.90;;;;;;4911583;29;20087;-67
2022/06/11 03:02:48;;;;;;;2.67;1.05;;;12.70;99.90;;;;;;4927740;29;20145;-67
2022/06/11 03:05:17;;;;;;;2.22;1.10;;;12.70;99.90;;;;;;4928862;29;20099;-67
2022/06/11 03:07:44;;;;;;;2.65;0.90;;;12.70;99.90;;;;;;4897017;29;20091;-67
2022/06/11 03:10:13;;;;;;;2.00;0.70;;;12.70;99.90;;;;;;4927709;29;20158;-68
2022/06/11 03:12:40;;;;;;;1.98;0.80;;;12.70;99.90;;;;;;4895951;29;20110;-67
2022/06/11 03:15:07;;;;;;;1.80;0.80;;;12.70;99.90;;;;;;4911052;29;20051;-67
2022/06/11 03:17:34;;;;;;;0.85;0.50;;;12.70;99.90;;;;;;4928547;29;20086;-67
2022/06/11 03:20:00;;;;;;;2.10;1.00;;;12.70;99.90;;;;;;4911805;29;20058;-67
2022/06/11 03:22:27;;;;;;;2.03;0.73;;;12.70;99.90;;;;;;4910961;29;20426;-68
2022/06/11 03:24:54;;;;;;;1.13;0.55;;;12.70;99.90;;;;;;4928392;29;20158;-68
2022/06/11 03:27:21;;;;;;;2.63;0.90;;;12.60;99.90;;;;;;4927514;29;20565;-68
2022/06/11 03:29:48;;;;;;;1.58;0.55;;;12.60;99.90;;;;;;4928300;29;20135;-67
2022/06/11 03:32:14;;;;;;;1.95;0.73;;;12.60;99.90;;;;;;4928422;29;20482;-67
2022/06/11 03:34:41;;;;;;;2.75;0.80;;;12.60;99.90;;;;;;4912184;29;20051;-67
2022/06/11 03:37:08;;;;;;;2.40;1.10;;;12.50;99.90;;;;;;4928472;29;20060;-68
2022/06/11 03:39:35;;;;;;;2.00;0.70;;;12.60;99.90;;;;;;4895797;29;20134;-68
2022/06/11 03:42:02;;;;;;;1.88;0.70;;;12.50;99.90;;;;;;4910042;29;20139;-67
2022/06/11 03:44:29;;;;;;;2.35;0.70;;;12.50;99.90;;;;;;4893866;29;20087;-67
2022/06/11 03:46:56;;;;;;;1.20;0.80;;;12.50;99.90;;;;;;4910308;29;20091;-68
2022/06/11 03:49:23;;;;;;;1.50;0.80;;;12.50;99.90;;;;;;4911517;29;20396;-67
2022/06/11 03:51:50;;;;;;;1.35;0.60;;;12.50;99.90;;;;;;4895135;29;20523;-67
2022/06/11 03:54:17;;;;;;;2.35;0.60;;;12.50;99.90;;;;;;4927971;29;20134;-67
2022/06/11 03:56:45;;;;;;;1.05;0.70;;;12.40;99.90;;;;;;4909384;29;20146;-68
2022/06/11 03:59:12;;;;;;;1.88;0.60;;;12.50;99.90;;;;;;4894686;29;20402;-67
2022/06/11 04:01:39;;;;;;;1.23;0.60;;;12.40;99.90;;;;;;4895123;29;20515;-67
2022/06/11 04:04:08;;;;;;;2.63;0.80;;;12.40;99.90;;;;;;4894572;29;20127;-68
2022/06/11 04:06:40;;;;;;;1.25;0.60;;;12.40;99.90;;;;;;4927999;29;20594;-67
2022/06/11 04:09:09;;;;;;;1.38;0.60;;;12.40;99.90;;;;;;4911616;29;20051;-67
2022/06/11 04:11:36;;;;;;;1.25;0.50;;;12.40;99.90;;;;;;4926407;29;20052;-67
2022/06/11 04:14:02;;;;;;;1.85;0.63;;;12.40;99.90;;;;;;4909512;29;20087;-67
2022/06/11 04:16:40;;;;;;;1.05;0.60;;;12.40;99.90;;;;;;4927620;29;20054;-68
2022/06/11 04:19:08;;;;;;;1.88;0.73;;;12.40;99.90;;;;;;4910325;29;20139;-67
2022/06/11 04:21:35;;;;;;;1.60;0.70;;;12.40;99.90;;;;;;4910463;29;20256;-68
2022/06/11 04:24:03;;;;;;;0.75;0.68;;;12.40;99.90;;;;;;4894127;29;20082;-67
2022/06/11 04:26:35;;;;;;;2.17;1.08;;;12.40;99.90;;;;;;4926326;29;20071;-68
2022/06/11 04:29:04;;;;;;;0.90;0.47;;;12.40;99.90;;;;;;4925677;29;20131;-67
2022/06/11 04:31:31;;;;;;;1.33;0.60;;;12.40;99.90;;;;;;4894952;29;20150;-68
2022/06/11 04:33:57;;;;;;;1.95;0.60;;;12.40;99.90;;;;;;4926472;29;20468;-67
2022/06/11 04:36:26;;;;;;;1.60;0.50;;;12.50;99.90;;;;;;4909017;29;20089;-68
2022/06/11 04:38:52;;;;;;;1.35;0.65;;;12.50;99.90;;;;;;4914342;29;20079;-68
2022/06/11 04:41:20;;;;;;;1.35;0.68;;;12.50;99.90;;;;;;4917673;29;20074;-68
2022/06/11 04:43:46;;;;;;;1.42;0.93;;;12.60;99.90;;;;;;4931970;29;20172;-68
2022/06/11 04:46:13;;;;;;;0.80;0.50;;;12.60;99.90;;;;;;4917354;29;20098;-69
2022/06/11 04:48:40;;;;;;;1.80;0.90;;;12.60;99.90;;;;;;4917357;29;20135;-67
2022/06/11 04:51:07;;;;;;;2.45;0.77;;;12.60;99.90;;;;;;4933714;29;20052;-67
2022/06/11 04:53:34;;;;;;;2.80;1.02;;;12.70;99.90;;;;;;4910389;29;20567;-68
2022/06/11 04:56:01;;;;;;;1.40;0.73;;;12.70;99.90;;;;;;4883793;29;20133;-68
2022/06/11 04:58:28;;;;;;;1.95;0.90;;;12.80;99.90;;;;;;4909358;29;20127;-69
2022/06/11 05:00:54;;;;;;;1.58;0.73;;;12.80;99.90;;;;;;4926408;29;20537;-67
2022/06/11 05:03:21;;;;;;;2.55;0.90;;;12.90;99.90;;;;;;4891301;29;20126;-67
2022/06/11 05:05:48;;;;;;;2.45;1.05;;;12.90;99.90;;;;;;4941211;29;20571;-67
2022/06/11 05:08:15;;;;;;;2.80;1.17;;;13.00;99.90;;;;;;4923239;29;20079;-67
2022/06/11 05:10:42;;;;;;;2.92;1.10;;;13.00;99.90;;;;;;4922548;29;20130;-68
2022/06/11 05:13:09;;;;;;;2.88;1.05;;;13.10;99.90;;;;;;4887541;29;20099;-67
2022/06/11 05:15:44;;;;;;;2.70;1.05;;;13.20;99.90;;;;;;4888465;29;20051;-67
2022/06/11 05:18:12;;;;;;;3.80;1.23;;;13.20;99.90;;;;;;4884466;29;20060;-66
2022/06/11 05:20:39;;;;;;;2.10;1.10;;;13.30;99.90;;;;;;4892911;29;20127;-67
2022/06/11 05:23:06;;;;;;;1.27;0.82;;;13.30;99.90;;;;;;4918383;29;20489;-67
2022/06/11 05:25:34;;;;;;;1.85;0.93;;;13.40;99.90;;;;;;4917763;29;20079;-66
2022/06/11 05:28:02;;;;;;;3.95;1.15;;;13.40;99.90;;;;;;4902108;29;20062;-66
2022/06/11 05:30:30;;;;;;;4.25;1.40;;;13.50;99.90;;;;;;4905215;29;20079;-68
2022/06/11 05:32:57;;;;;;;3.10;1.35;;;13.50;99.90;;;;;;4872526;29;20059;-67
2022/06/11 05:35:25;;;;;;;4.57;1.45;;;13.60;99.90;;;;;;4920929;29;20048;-67
2022/06/11 05:37:53;;;;;;;1.88;0.98;;;13.60;99.90;;;;;;4920758;29;20270;-67
2022/06/11 05:40:23;;;;;;;3.67;1.48;;;13.70;99.90;;;;;;4883474;29;20360;-67
2022/06/11 05:42:49;;;;;;;4.50;1.38;;;13.80;99.90;;;;;;4918215;29;20059;-67
2022/06/11 05:45:19;;;;;;;2.83;1.05;;;13.80;99.90;;;;;;4917616;29;20534;-67
2022/06/11 05:47:46;;;;;;;3.28;1.27;;;13.90;99.90;;;;;;4919600;29;20490;-67
2022/06/11 05:50:15;;;;;;;4.18;1.67;;;13.90;99.90;;;;;;4920418;29;20182;-67
2022/06/11 05:52:45;;;;;;;3.28;1.58;;;14.00;99.90;;;;;;4901210;29;20110;-68
2022/06/11 05:55:17;;;;;;;6.65;1.80;;;14.10;99.90;;;;;;4901448;29;20522;-67
2022/06/11 05:57:45;;;;;;;3.83;1.57;;;14.10;99.90;;;;;;4885606;29;20495;-68
2022/06/11 06:00:13;;;;;;;5.30;1.55;;;14.20;99.90;;;;;;4914179;29;20814;-68
2022/06/11 06:02:40;;;;;;;4.75;1.60;;;14.30;99.90;;;;;;4903580;29;20178;-69
2022/06/11 06:05:09;;;;;;;5.40;2.00;;;14.30;99.90;;;;;;4918395;29;20071;-69
2022/06/11 06:07:35;;;;;;;5.18;1.88;;;14.40;99.90;;;;;;4902775;29;20269;-67
2022/06/11 06:10:03;;;;;;;2.83;1.20;;;14.50;99.90;;;;;;4870621;29;20174;-67
2022/06/11 06:12:33;;;;;;;5.63;1.30;;;14.50;99.90;;;;;;4898642;29;20442;-67
2022/06/11 06:15:17;;;;;;;3.13;0.98;;;14.60;99.90;;;;;;4903762;29;20135;-67
2022/06/11 06:17:44;;;;;;;2.67;1.08;;;14.60;99.90;;;;;;4903207;29;20087;-67
2022/06/11 06:20:13;;;;;;;5.03;1.42;;;14.70;99.90;;;;;;4917076;29;20126;-67
2022/06/11 06:22:41;;;;;;;4.25;1.67;;;14.80;99.90;;;;;;4902014;29;20218;-68
2022/06/11 06:25:08;;;;;;;6.30;1.67;;;14.90;99.90;;;;;;4915568;29;20147;-68
2022/06/11 06:27:35;;;;;;;5.18;1.60;;;15.00;99.90;;;;;;4899239;29;20284;-68
2022/06/11 06:30:02;;;;;;;5.13;1.58;;;15.00;99.90;;;;;;4919353;29;20083;-67
2022/06/11 06:32:29;;;;;;;3.92;1.52;;;15.10;99.90;;;;;;4907361;29;20488;-67
2022/06/11 06:34:56;;;;;;;3.53;1.30;;;15.20;99.90;;;;;;4905829;29;20174;-67
2022/06/11 06:37:22;;;;;;;4.25;1.83;;;15.20;99.90;;;;;;4923630;29;20048;-68
2022/06/11 06:39:49;;;;;;;7.97;1.88;;;15.30;99.90;;;;;;4906371;29;20097;-68
2022/06/11 06:42:16;;;;;;;6.80;2.28;;;15.40;99.90;;;;;;4919699;29;20131;-67
2022/06/11 06:44:43;;;;;;;5.13;1.85;;;15.40;99.90;;;;;;4902233;29;20481;-68
2022/06/11 06:47:10;;;;;;;5.78;1.98;;;15.40;99.90;;;;;;4888595;29;20126;-68
2022/06/11 06:49:37;;;;;;;3.88;1.80;;;15.50;99.90;;;;;;4921944;29;21308;-67
2022/06/11 06:52:04;;;;;;;5.10;1.75;;;15.60;99.90;;;;;;4923286;29;20123;-67
2022/06/11 06:54:31;;;;;;;4.85;1.83;;;15.60;99.90;;;;;;4918696;29;20435;-67
2022/06/11 06:56:57;;;;;;;5.45;1.88;;;15.70;99.90;;;;;;4922905;29;20154;-68
2022/06/11 06:59:24;;;;;;;7.43;2.10;;;15.70;99.90;;;;;;4921744;29;20114;-67
2022/06/11 07:01:51;;;;;;;5.35;2.00;;;15.70;99.90;;;;;;4923034;29;20138;-67
2022/06/11 07:04:18;;;;;;;5.38;1.92;;;15.70;99.90;;;;;;4904221;29;20535;-67
2022/06/11 07:06:51;;;;;;;5.88;2.45;;;15.80;99.90;;;;;;4922698;29;20162;-68
2022/06/11 07:09:17;;;;;;;3.72;1.20;;;15.80;99.90;;;;;;4922401;29;20254;-67
2022/06/11 07:11:44;;;;;;;4.10;1.50;;;15.80;99.90;;;;;;4905369;29;20502;-67
2022/06/11 07:14:11;;;;;;;2.92;1.40;;;15.90;99.90;;;;;;4922720;29;20056;-68
2022/06/11 07:16:41;;;;;;;4.13;1.30;;;16.00;99.90;;;;;;4923658;29;20079;-67
2022/06/11 07:19:14;;;;;;;8.80;2.65;;;16.00;99.90;;;;;;4923731;29;20134;-67
2022/06/11 07:21:42;;;;;;;6.22;2.10;;;16.10;99.90;;;;;;4904947;29;20134;-67
2022/06/11 07:24:15;;;;;;;6.25;2.10;;;16.10;99.90;;;;;;4890924;29;20547;-67
2022/06/11 07:26:43;;;;;;;;;;;16.30;99.90;;;;;;4906152;29;20158;-68
2022/06/11 07:29:17;;;;;;;5.82;1.67;;;16.30;99.90;;;;;;4904775;29;20017;-68
2022/06/11 07:31:44;;;;;;;4.82;2.17;;;16.40;99.90;;;;;;4890482;29;20484;-67
2022/06/11 07:34:11;;;;;;;4.32;2.10;;;16.50;99.90;;;;;;4904192;29;20059;-68
2022/06/11 07:36:38;;;;;;;5.47;1.90;;;16.50;99.90;;;;;;4889700;29;20212;-67
2022/06/11 07:39:05;;;;;;;4.93;2.08;;;16.60;99.90;;;;;;4889270;29;20494;-66
2022/06/11 07:41:32;;;;;;;4.53;1.48;;;16.60;99.90;;;;;;4918479;29;20134;-77
2022/06/11 07:43:58;;;;;;;4.97;1.52;;;16.70;99.90;;;;;;4903649;29;20058;-83
2022/06/11 07:46:25;;;;;;;3.80;1.35;;;16.80;99.90;;;;;;4921680;29;20097;-80
2022/06/11 07:48:52;;;;;;;4.57;1.60;;;16.90;99.90;;;;;;4879601;29;20194;-76
2022/06/11 07:51:19;;;;;;;4.90;1.83;;;17.00;99.90;;;;;;4905750;29;20583;-67
2022/06/11 07:53:47;;;;;;;3.08;1.25;;;17.00;99.90;;;;;;4922045;29;20075;-67
2022/06/11 07:56:13;;;;;;;3.05;1.58;;;17.20;99.90;;;;;;4902423;29;20083;-75
2022/06/11 07:58:40;;;;;;;3.05;1.35;;;17.20;99.90;;;;;;4902346;29;20146;-67
2022/06/11 08:01:07;;;;;;;2.53;1.20;;;17.30;99.90;;;;;;4905463;29;20178;-75
2022/06/11 08:03:37;;;;;;;6.15;1.70;;;17.40;99.90;;;;;;4903920;29;20056;-67
2022/06/11 08:06:06;;;;;;;4.18;1.48;;;17.40;99.90;;;;;;4919915;29;20139;-69
2022/06/11 08:08:33;;;;;;;4.15;1.58;;;17.40;99.90;;;;;;4922769;29;20608;-71
2022/06/11 08:11:00;;;;;;;3.78;1.38;;;17.40;99.90;;;;;;4888302;29;20086;-66
2022/06/11 08:13:26;;;;;;;3.83;1.45;;;17.30;99.90;;;;;;4916715;29;20127;-80
2022/06/11 08:15:53;;;;;;;5.95;1.83;;;17.40;99.90;;;;;;4886783;29;20275;-67
2022/06/11 08:18:21;;;;;;;2.17;1.05;;;17.50;99.90;;;;;;4894101;29;20133;-66
2022/06/11 08:20:50;;;;;;;3.72;1.55;;;17.70;99.90;;;;;;4919810;29;20110;-73
2022/06/11 08:23:17;;;;;;;5.55;1.70;;;17.70;99.90;;;;;;4887105;29;20110;-67
2022/06/11 08:25:44;;;;;;;5.63;1.70;;;17.80;99.90;;;;;;4904232;29;20353;-67
2022/06/11 08:28:12;;;;;;;3.08;1.20;;;17.80;99.90;;;;;;4915767;29;20059;-66
2022/06/11 08:30:39;;;;;;;4.63;1.70;;;17.90;99.90;;;;;;4899963;29;20079;-67
2022/06/11 08:33:06;;;;;;;4.60;1.50;;;18.00;99.90;;;;;;4914388;29;20052;-66
2022/06/11 08:35:34;;;;;;;3.42;1.50;;;18.10;99.90;;;;;;4922006;29;20206;-66
2022/06/11 08:38:02;;;;;;;3.10;1.30;;;18.20;99.90;;;;;;4889779;29;20138;-66
2022/06/11 08:40:36;;;;;;;2.38;1.27;;;18.20;99.90;;;;;;4921866;29;20130;-67
2022/06/11 08:43:22;;;;;;;3.20;1.08;;;18.40;99.90;;;;;;4918912;29;20114;-66
2022/06/11 08:46:15;;;;;;;2.38;1.20;;;18.60;99.90;;;;;;4914043;29;20060;-67
2022/06/11 08:48:42;;;;;;;4.85;1.60;;;18.70;99.90;;;;;;4890748;29;20054;-67
2022/06/11 08:51:09;;;;;;;3.67;1.73;;;18.80;99.90;;;;;;4920807;29;20469;-67
2022/06/11 08:53:36;;;;;;;3.72;1.50;;;18.90;99.90;;;;;;4920927;29;20059;-68
2022/06/11 08:56:04;;;;;;;5.47;1.83;;;19.00;99.90;;;;;;4888380;29;20107;-67
2022/06/11 08:58:40;;;;;;;5.00;1.42;;;19.00;99.90;;;;;;4903795;29;20559;-67
2022/06/11 09:01:15;;;;;;;4.82;1.65;;;19.10;99.90;;;;;;4920446;29;20147;-67
2022/06/11 09:03:45;;;;;;;3.42;1.40;;;19.10;99.90;;;;;;4911848;29;20055;-66
2022/06/11 09:06:33;;;;;;;2.75;1.08;;;19.10;99.90;;;;;;4914856;29;20074;-67
2022/06/11 09:09:11;;;;;;;2.38;0.88;;;19.30;99.90;;;;;;4917623;29;20079;-68
2022/06/11 09:12:14;;;;;;;2.97;1.23;;;19.40;99.90;;;;;;4904526;29;20147;-67
2022/06/11 09:15:09;;;;;;;4.15;1.65;;;19.30;99.90;;;;;;4903374;29;20167;-67
2022/06/11 09:18:01;;;;;;;3.58;1.23;;;19.30;99.90;;;;;;4916931;29;20150;-67
2022/06/11 09:20:54;;;;;;;4.23;1.80;;;19.20;99.90;;;;;;4886628;29;20172;-67
2022/06/11 09:23:52;;;;;;;3.15;1.17;;;19.30;99.90;;;;;;4899209;29;20656;-68
2022/06/11 09:26:37;;;;;;;5.25;1.80;;;19.30;99.90;;;;;;4884559;29;20059;-66
2022/06/11 09:29:42;;;;;;;4.40;1.52;;;19.40;99.90;;;;;;4920266;29;20225;-66
2022/06/11 09:32:14;;;;;;;5.63;1.70;;;19.50;99.90;;;;;;4898485;29;20140;-67
2022/06/11 09:34:52;;;;;;;3.60;1.40;;;19.50;99.90;;;;;;4888221;29;20051;-66
2022/06/11 09:37:36;;;;;;;3.08;1.20;;;19.50;99.90;;;;;;4921103;29;20188;-67
2022/06/11 09:40:26;;;;;;;3.95;1.23;;;19.60;99.90;;;;;;4902929;29;20083;-65
2022/06/11 09:42:59;;;;;;;2.60;1.08;;;19.60;99.90;;;;;;4895884;29;20359;-67
2022/06/11 09:45:33;;;;;;;17.80;3.55;;;19.80;99.90;;;;;;4923209;29;20052;-67
2022/06/11 09:48:20;;;;;;;6.80;2.38;;;19.90;99.90;;;;;;4907110;29;20063;-66
2022/06/11 09:51:01;;;;;;;3.33;1.80;;;20.00;99.90;;;;;;4923672;29;20055;-66
2022/06/11 09:53:34;;;;;;;3.30;1.10;;;20.00;99.90;;;;;;4908668;29;20363;-66
2022/06/11 09:56:02;;;;;;;;;;;20.20;99.90;;;;;;4906225;29;20118;-66
2022/06/11 09:58:44;;;;;;;3.20;1.40;;;20.50;99.90;;;;;;4919676;29;20417;-66
2022/06/11 10:01:15;;;;;;;3.00;1.38;;;20.80;99.90;;;;;;4888407;29;20070;-67
2022/06/11 10:03:48;;;;;;;2.92;1.15;;;20.90;99.90;;;;;;4922824;29;20447;-67
2022/06/11 10:06:25;;;;;;;3.28;1.30;;;20.90;99.90;;;;;;4907560;29;20064;-66
2022/06/11 10:09:09;;;;;;;4.85;1.40;;;21.00;99.90;;;;;;4903859;29;20130;-67
2022/06/11 10:11:37;;;;;;;2.95;1.15;;;21.10;99.90;;;;;;4904084;29;20185;-67
2022/06/11 10:14:28;;;;;;;2.83;1.17;;;21.20;99.90;;;;;;4905845;29;20503;-67
2022/06/11 10:17:01;;;;;;;2.90;1.00;;;21.30;99.90;;;;;;4909076;29;20047;-67
2022/06/11 10:19:51;;;;;;;2.97;1.40;;;21.20;99.90;;;;;;4919742;29;20067;-67
2022/06/11 10:22:58;;;;;;;2.83;1.20;;;21.20;99.90;;;;;;4907750;29;20080;-67
2022/06/11 10:25:34;;;;;;;3.25;1.23;;;21.30;99.90;;;;;;4906854;29;20431;-67
2022/06/11 10:28:09;;;;;;;2.90;1.10;;;21.40;99.90;;;;;;4903284;29;20055;-67
2022/06/11 10:30:51;;;;;;;3.40;1.67;;;21.30;99.90;;;;;;4906575;29;20071;-68
2022/06/11 10:33:21;;;;;;;3.00;1.42;;;21.30;99.80;;;;;;4910185;29;20477;-71
2022/06/11 10:35:51;;;;;;;3.92;1.27;;;21.10;98.70;;;;;;4908205;29;20166;-68
2022/06/11 10:38:54;;;;;;;3.47;1.20;;;21.00;99.30;;;;;;4918175;29;20079;-68
2022/06/11 10:41:30;;;;;;;4.32;1.30;;;20.90;99.60;;;;;;4895270;29;20175;-67
2022/06/11 10:44:03;;;;;;;2.33;0.98;;;20.70;99.90;;;;;;4922579;29;20082;-68
2022/06/11 10:46:32;;;;;;;3.85;1.20;;;20.80;99.90;;;;;;4919621;29;20577;-68
2022/06/11 10:48:59;;;;;;;2.47;1.20;;;20.90;99.90;;;;;;4907360;29;20075;-68
2022/06/11 10:51:29;;;;;;;4.22;1.80;;;21.00;98.60;;;;;;4890265;29;20059;-68
2022/06/11 10:54:04;;;;;;;3.05;1.33;;;21.10;98.30;;;;;;4909277;29;20064;-68
2022/06/11 10:57:04;;;;;;;4.60;1.48;;;21.10;98.00;;;;;;4908015;29;20099;-68
2022/06/11 10:59:38;;;;;;;3.25;0.90;;;21.20;97.70;;;;;;4900835;29;20110;-67
2022/06/11 11:02:28;;;;;;;1.80;0.80;;;21.30;97.10;;;;;;4900995;29;20050;-67
2022/06/11 11:04:56;;;;;;;2.13;0.70;;;21.40;97.30;;;;;;4890993;29;20142;-67
2022/06/11 11:07:24;;;;;;;1.67;0.65;;;21.60;98.40;;;;;;4875676;29;20091;-68
2022/06/11 11:09:58;;;;;;;2.65;1.00;;;21.80;97.70;;;;;;4914341;29;20135;-68
2022/06/11 11:12:29;;;;;;;2.10;1.15;;;21.90;98.40;;;;;;4900631;29;20047;-68
2022/06/11 11:15:18;;;;;;;1.45;0.63;;;21.90;97.40;;;;;;4903637;29;20140;-68
2022/06/11 11:17:47;;;;;;;3.10;1.25;;;21.90;97.20;;;;;;4893730;29;20143;-79
2022/06/11 11:20:35;;;;;;;2.08;0.77;;;21.80;96.50;;;;;;4884810;29;20051;-68
2022/06/11 11:23:35;;;;;;;2.55;1.08;;;21.90;95.80;;;;;;4908886;29;20087;-73
2022/06/11 11:26:14;;;;;;;3.53;1.40;;;21.90;95.00;;;;;;4892446;29;20135;-71
2022/06/11 11:28:46;;;;;;;3.63;1.00;;;21.80;95.00;;;;;;4891767;29;20084;-68
2022/06/11 11:31:27;;;;;;;2.95;1.15;;;21.60;95.00;;;;;;4893273;29;20155;-68
2022/06/11 11:34:26;;;;;;;2.35;0.90;;;21.40;95.30;;;;;;4905702;29;20088;-68
2022/06/11 11:37:16;;;;;;;4.15;1.17;;;21.20;96.10;;;;;;4909293;29;20075;-79
2022/06/11 11:40:00;;;;;;;4.28;1.10;;;21.10;96.40;;;;;;4900705;29;20158;-82
2022/06/11 11:42:37;;;;;;;2.97;1.30;;;21.10;96.20;;;;;;4908492;29;20055;-67
2022/06/11 11:45:51;;;;;;;2.85;1.30;;;21.10;96.20;;;;;;4908003;29;20159;-67
2022/06/11 11:48:33;;;;;;;2.63;1.10;;;21.10;96.80;;;;;;4867321;29;20093;-67
2022/06/11 11:51:12;;;;;;;4.43;1.30;;;21.10;97.20;;;;;;4926490;29;20071;-67
2022/06/11 11:53:48;;;;;;;3.08;1.23;;;21.20;96.80;;;;;;4925756;29;20083;-67
2022/06/11 11:56:35;;;;;;;3.72;1.40;;;21.50;96.60;;;;;;4905330;29;20494;-67
2022/06/11 11:59:14;;;;;;;2.03;0.88;;;21.50;95.30;;;;;;4900000;29;20126;-67
2022/06/11 12:01:42;;;;;;;3.83;1.20;;;21.40;95.70;;;;;;4903617;29;20082;-67
2022/06/11 12:04:21;;;;;;;2.05;0.85;;;21.50;96.50;;;;;;4905395;29;20703;-69
2022/06/11 12:07:02;;;;;;;2.45;0.90;;;21.90;96.20;;;;;;4923795;29;20148;-70
2022/06/11 12:09:37;;;;;;;3.97;1.15;;;22.00;96.00;;;;;;4901358;29;20127;-80
2022/06/11 12:12:20;;;;;;;3.58;1.33;;;21.90;94.80;;;;;;4906254;29;20143;-75
2022/06/11 12:14:52;;;;;;;4.25;1.60;;;21.80;95.30;;;;;;4905361;29;20456;-68
2022/06/11 12:17:52;;;;;;;1.75;0.90;;;22.00;95.50;;;;;;4907404;29;20052;-80
2022/06/11 12:20:44;;;;;;;2.00;0.70;;;22.20;95.20;;;;;;4918447;29;20144;-70
2022/06/11 12:23:30;;;;;;;2.80;0.90;;;22.10;95.50;;;;;;4907110;29;20051;-68
2022/06/11 12:25:59;;;;;;;2.63;1.02;;;21.90;96.10;;;;;;4923790;29;20134;-71
2022/06/11 12:28:38;;;;;;;2.75;0.90;;;22.70;95.90;;;;;;4905125;29;20159;-72
2022/06/11 12:31:12;;;;;;;2.80;1.33;;;23.30;94.00;;;;;;4907965;29;20441;-69
2022/06/11 12:33:44;;;;;;;3.00;1.55;;;23.80;93.20;;;;;;4875779;29;20043;-70
2022/06/11 12:36:33;;;;;;;2.72;1.40;;;24.30;92.90;;;;;;4905361;29;20153;-69
2022/06/11 12:39:14;;;;;;;4.20;1.52;;;24.20;92.70;;;;;;4903304;29;20059;-70
2022/06/11 12:41:50;;;;;;;2.72;1.10;;;24.40;93.20;;;;;;4908914;29;20622;-76
2022/06/11 12:44:31;;;;;;;2.65;1.00;;;24.40;92.10;;;;;;4924790;29;20079;-81
2022/06/11 12:47:20;;;;;;;2.08;1.13;;;25.00;92.10;;;;;;4922992;29;20482;-71
2022/06/11 12:50:06;;;;;;;3.65;1.10;;;25.30;91.20;;;;;;4910211;29;20047;-79
2022/06/11 12:52:53;;;;;;;1.88;0.98;;;25.30;90.40;;;;;;4908878;29;20051;-67
2022/06/11 12:55:40;;;;;;;1.98;1.00;;;25.50;90.30;;;;;;4891713;29;20051;-67
2022/06/11 12:58:35;;;;;;;2.83;1.33;;;25.80;89.60;;;;;;4902612;29;20555;-68
2022/06/11 13:01:19;;;;;;;2.00;1.00;;;26.00;87.90;;;;;;4916872;29;20138;-68
2022/06/11 13:04:13;;;;;;;1.63;0.70;;;26.30;87.20;;;;;;4886518;29;20187;-66
2022/06/11 13:06:45;;;;;;;1.65;0.57;;;26.90;86.80;;;;;;4917988;29;20067;-65
2022/06/11 13:09:37;;;;;;;0.95;0.55;;;26.50;85.20;;;;;;4900658;29;20225;-69
2022/06/11 13:12:09;;;;;;;1.30;0.57;;;26.20;85.90;;;;;;4902080;29;20083;-66
2022/06/11 13:14:51;;;;;;;1.38;0.75;;;25.70;86.70;;;;;;4906992;29;20048;-66
2022/06/11 13:17:33;;;;;;;1.00;0.60;;;26.10;87.50;;;;;;4907607;29;20082;-66
2022/06/11 13:20:08;;;;;;;2.30;0.80;;;26.50;85.50;;;;;;4924897;29;20675;-66
2022/06/11 13:22:49;;;;;;;1.83;0.93;;;27.10;86.30;;;;;;4891463;29;20360;-69